Time,TemperatureF,DewpointF,PressureIn,WindDirection,WindDirectionDegrees,WindSpeedMPH,WindSpeedGustMPH,Humidity,HourlyPrecipIn,Conditions,Clouds,dailyrainin,SoftwareType,DateUTC
2013-08-01 00:02:00,58.0,58.0,-100.00,WSW,245,2.0,2.0,99,-99.99,,,-99.99,,2013-08-01 05:02:00,
2013-08-01 00:43:00,58.0,58.0,-100.00,WSW,250,2.0,2.0,99,-99.99,,,-99.99,,2013-08-01 05:43:00,
2013-08-01 00:53:00,58.0,58.0,-100.00,WSW,250,2.0,2.0,99,-99.99,,,-99.99,,2013-08-01 05:53:00,
2013-08-01 01:02:00,58.0,58.0,-100.00,WSW,250,2.0,2.0,99,-99.99,,,-99.99,,2013-08-01 06:02:00,
2013-08-01 01:10:00,57.0,57.0,-100.00,SW,235,2.0,2.0,99,-99.99,,,-99.99,,2013-08-01 06:10:00,
2013-08-01 01:43:00,57.0,57.0,-100.00,SW,235,2.0,2.0,99,-99.99,,,-99.99,,2013-08-01 06:43:00,
2013-08-01 01:53:00,57.0,57.0,-100.00,SW,235,2.0,2.0,99,-99.99,,,-99.99,,2013-08-01 06:53:00,
2013-08-01 02:02:00,57.0,57.0,-100.00,SW,235,2.0,2.0,99,-99.99,,,-99.99,,2013-08-01 07:02:00,
2013-08-01 02:10:00,56.0,56.0,-100.00,WSW,240,4.0,4.0,99,-99.99,,,-99.99,,2013-08-01 07:10:00,
2013-08-01 02:43:00,56.0,56.0,-100.00,WSW,240,4.0,4.0,99,-99.99,,,-99.99,,2013-08-01 07:43:00,
2013-08-01 02:55:00,56.0,56.0,-100.00,WSW,240,4.0,4.0,99,-99.99,,,-99.99,,2013-08-01 07:55:00,
2013-08-01 03:05:00,56.0,56.0,-100.00,WSW,240,4.0,4.0,99,-99.99,,,-99.99,,2013-08-01 08:05:00,
2013-08-01 03:10:00,56.0,56.0,-100.00,WSW,245,5.0,6.0,99,-99.99,,,-99.99,,2013-08-01 08:10:00,
2013-08-01 03:48:00,56.0,56.0,-100.00,WSW,245,5.0,6.0,99,-99.99,,,-99.99,,2013-08-01 08:48:00,
2013-08-01 04:10:00,55.0,54.0,-100.00,WSW,250,2.0,2.0,99,-99.99,,,-99.99,,2013-08-01 09:10:00,
2013-08-01 04:58:00,55.0,54.0,-100.00,WSW,250,2.0,2.0,99,-99.99,,,-99.99,,2013-08-01 09:58:00,
2013-08-01 05:07:00,55.0,54.0,-100.00,WSW,250,2.0,2.0,99,-99.99,,,-99.99,,2013-08-01 10:07:00,
2013-08-01 05:59:00,54.0,54.0,-100.00,SW,215,1.0,1.0,99,-99.99,,,-99.99,,2013-08-01 10:59:00,
2013-08-01 06:10:00,53.0,53.0,-100.00,West,265,1.0,2.0,99,-99.99,,,-99.99,,2013-08-01 11:10:00,
2013-08-01 06:50:00,53.0,53.0,-100.00,West,265,1.0,2.0,99,-99.99,,,-99.99,,2013-08-01 11:50:00,
2013-08-01 07:11:00,57.0,57.0,-100.00,SW,215,0.0,0.0,99,-99.99,,,-99.99,,2013-08-01 12:11:00,
2013-08-01 08:05:00,57.0,57.0,-100.00,SW,215,0.0,0.0,99,-99.99,,,-99.99,,2013-08-01 13:05:00,
2013-08-01 08:10:00,57.0,57.0,-100.00,SW,215,0.0,0.0,99,-99.99,,,-99.99,,2013-08-01 13:10:00,
2013-08-01 08:11:00,63.0,61.0,-100.00,West,260,4.0,6.0,92,-99.99,,,-99.99,,2013-08-01 13:11:00,
2013-08-01 08:55:00,63.0,61.0,-100.00,West,260,4.0,6.0,92,-99.99,,,-99.99,,2013-08-01 13:55:00,
2013-08-01 09:07:00,63.0,61.0,-100.00,West,260,4.0,6.0,92,-99.99,,,-99.99,,2013-08-01 14:07:00,
2013-08-01 09:10:00,69.0,61.0,-100.00,West,260,6.0,7.0,76,-99.99,,,-99.99,,2013-08-01 14:10:00,
2013-08-01 11:03:00,70.0,56.0,-100.00,WSW,255,8.0,11.0,61,-99.99,,,-99.99,,2013-08-01 16:03:00,
2013-08-01 11:11:00,73.0,58.0,-100.00,West,270,12.0,16.0,59,-99.99,,,-99.99,,2013-08-01 16:11:00,
2013-08-01 11:45:00,73.0,58.0,-100.00,West,270,12.0,16.0,59,-99.99,,,-99.99,,2013-08-01 16:45:00,
2013-08-01 11:53:00,73.0,58.0,-100.00,West,270,12.0,16.0,59,-99.99,,,-99.99,,2013-08-01 16:53:00,
2013-08-01 12:10:00,75.0,57.0,-100.00,West,265,12.0,15.0,54,-99.99,,,-99.99,,2013-08-01 17:10:00,
2013-08-01 13:11:00,76.0,55.0,-100.00,WNW,300,14.0,16.0,49,-99.99,,,-99.99,,2013-08-01 18:11:00,
2013-08-01 13:55:00,76.0,55.0,-100.00,WNW,300,14.0,16.0,49,-99.99,,,-99.99,,2013-08-01 18:55:00,
2013-08-01 14:00:00,76.0,55.0,-100.00,WNW,300,14.0,16.0,49,-99.99,,,-99.99,,2013-08-01 19:00:00,
2013-08-01 14:08:00,76.0,55.0,-100.00,WNW,300,14.0,16.0,49,-99.99,,,-99.99,,2013-08-01 19:08:00,
2013-08-01 14:10:00,77.0,54.0,-100.00,WNW,285,16.0,19.0,45,-99.99,,,-99.99,,2013-08-01 19:10:00,
2013-08-01 15:10:00,76.0,54.0,-100.00,NW,310,15.0,19.0,47,-99.99,,,-99.99,,2013-08-01 20:10:00,
2013-08-01 15:52:00,76.0,54.0,-100.00,NW,310,15.0,19.0,47,-99.99,,,-99.99,,2013-08-01 20:52:00,
2013-08-01 15:58:00,76.0,54.0,-100.00,NW,310,15.0,19.0,47,-99.99,,,-99.99,,2013-08-01 20:58:00,
2013-08-01 16:03:00,76.0,54.0,-100.00,NW,310,15.0,19.0,47,-99.99,,,-99.99,,2013-08-01 21:03:00,
2013-08-01 16:10:00,75.0,52.0,-100.00,NW,305,16.0,18.0,45,-99.99,,,-99.99,,2013-08-01 21:10:00,
2013-08-01 16:43:00,75.0,52.0,-100.00,NW,305,16.0,18.0,45,-99.99,,,-99.99,,2013-08-01 21:43:00,
2013-08-01 16:53:00,75.0,52.0,-100.00,NW,305,16.0,18.0,45,-99.99,,,-99.99,,2013-08-01 21:53:00,
2013-08-01 17:10:00,76.0,55.0,-100.00,NW,310,13.0,16.0,48,-99.99,,,-99.99,,2013-08-01 22:10:00,
2013-08-01 17:48:00,76.0,55.0,-100.00,NW,310,13.0,16.0,48,-99.99,,,-99.99,,2013-08-01 22:48:00,
2013-08-01 17:59:00,76.0,55.0,-100.00,NW,310,13.0,16.0,48,-99.99,,,-99.99,,2013-08-01 22:59:00,
2013-08-01 18:07:00,76.0,55.0,-100.00,NW,310,13.0,16.0,48,-99.99,,,-99.99,,2013-08-01 23:07:00,
2013-08-01 18:52:00,75.0,54.0,-100.00,West,270,14.0,17.0,47,-99.99,,,-99.99,,2013-08-01 23:52:00,
2013-08-01 19:00:00,75.0,54.0,-100.00,West,270,14.0,17.0,47,-99.99,,,-99.99,,2013-08-02 00:00:00,
2013-08-01 19:08:00,75.0,54.0,-100.00,West,270,14.0,17.0,47,-99.99,,,-99.99,,2013-08-02 00:08:00,
2013-08-01 19:52:00,74.0,55.0,-100.00,NW,325,9.0,14.0,51,-99.99,,,-99.99,,2013-08-02 00:52:00,
2013-08-01 20:00:00,74.0,55.0,-100.00,NW,325,9.0,14.0,51,-99.99,,,-99.99,,2013-08-02 01:00:00,
2013-08-01 20:11:00,72.0,55.0,-100.00,NW,325,5.0,7.0,56,-99.99,,,-99.99,,2013-08-02 01:11:00,
2013-08-01 21:00:00,72.0,55.0,-100.00,NW,325,5.0,7.0,56,-99.99,,,-99.99,,2013-08-02 02:00:00,
2013-08-01 21:07:00,72.0,55.0,-100.00,NW,325,5.0,7.0,56,-99.99,,,-99.99,,2013-08-02 02:07:00,
2013-08-01 21:11:00,67.0,56.0,-100.00,WNW,290,4.0,4.0,68,-99.99,,,-99.99,,2013-08-02 02:11:00,
2013-08-01 21:45:00,67.0,56.0,-100.00,WNW,290,4.0,4.0,68,-99.99,,,-99.99,,2013-08-02 02:45:00,
2013-08-01 21:53:00,67.0,56.0,-100.00,WNW,290,4.0,4.0,68,-99.99,,,-99.99,,2013-08-02 02:53:00,
2013-08-01 22:11:00,63.0,57.0,-100.00,WNW,285,4.0,5.0,81,-99.99,,,-99.99,,2013-08-02 03:11:00,
2013-08-01 22:52:00,63.0,57.0,-100.00,WNW,285,4.0,5.0,81,-99.99,,,-99.99,,2013-08-02 03:52:00,
2013-08-01 23:00:00,63.0,57.0,-100.00,WNW,285,4.0,5.0,81,-99.99,,,-99.99,,2013-08-02 04:00:00,
2013-08-01 23:02:00,63.0,57.0,-100.00,WNW,285,4.0,5.0,81,-99.99,,,-99.99,,2013-08-02 04:02:00,
2013-08-01 23:11:00,62.0,59.0,-100.00,NW,310,4.0,4.0,88,-99.99,,,-99.99,,2013-08-02 04:11:00,
2013-08-01 23:43:00,62.0,59.0,-100.00,NW,310,4.0,4.0,88,-99.99,,,-99.99,,2013-08-02 04:43:00,
2013-08-01 23:53:00,62.0,59.0,-100.00,NW,310,4.0,4.0,88,-99.99,,,-99.99,,2013-08-02 04:53:00,